createdAt,value
2023-02-12T00:00:03.643Z,4.00
2023-02-12T00:02:30.842Z,4.00
2023-02-12T00:04:57.563Z,4.00
2023-02-12T00:07:24.299Z,3.80
2023-02-12T00:09:50.987Z,3.70
2023-02-12T00:12:17.703Z,3.70
2023-02-12T00:14:44.453Z,3.80
2023-02-12T00:17:11.218Z,3.90
2023-02-12T00:19:38.225Z,4.00
2023-02-12T00:22:04.965Z,4.00
2023-02-12T00:24:32.248Z,4.00
2023-02-12T00:26:59.070Z,4.10
2023-02-12T00:29:25.783Z,4.10
2023-02-12T00:31:52.659Z,4.10
2023-02-12T00:34:19.356Z,4.10
2023-02-12T00:36:46.006Z,4.00
2023-02-12T00:39:12.791Z,4.00
2023-02-12T00:41:39.462Z,4.00
2023-02-12T00:44:06.143Z,4.00
2023-02-12T00:46:32.851Z,4.00
2023-02-12T00:48:59.658Z,4.00
2023-02-12T00:51:26.353Z,4.00
2023-02-12T00:53:53.043Z,3.90
2023-02-12T00:56:19.775Z,3.90
2023-02-12T00:58:46.603Z,3.90
2023-02-12T01:01:13.497Z,3.90
2023-02-12T01:03:40.212Z,3.90
2023-02-12T01:06:07.165Z,3.90
2023-02-12T01:08:34.073Z,4.00
2023-02-12T01:11:04.367Z,4.00
2023-02-12T01:13:32.432Z,3.90
2023-02-12T01:16:03.332Z,3.90
2023-02-12T01:18:30.125Z,3.90
2023-02-12T01:20:59.038Z,4.00
2023-02-12T01:23:25.995Z,3.90
2023-02-12T01:25:52.991Z,3.90
2023-02-12T01:28:19.839Z,3.70
2023-02-12T01:30:46.538Z,3.80
2023-02-12T01:33:13.411Z,3.80
2023-02-12T01:35:40.120Z,3.70
2023-02-12T01:38:06.844Z,3.70
2023-02-12T01:40:33.548Z,3.60
2023-02-12T01:43:03.907Z,3.40
2023-02-12T01:45:36.705Z,3.20
2023-02-12T01:48:03.669Z,3.20
2023-02-12T01:50:30.587Z,3.30
2023-02-12T01:52:58.749Z,3.30
2023-02-12T01:55:25.821Z,3.30
2023-02-12T01:57:52.604Z,3.30
2023-02-12T02:00:22.801Z,3.50
2023-02-12T02:02:56.855Z,3.30
2023-02-12T02:05:38.271Z,3.40
2023-02-12T02:08:05.262Z,3.40
2023-02-12T02:10:31.943Z,3.60
2023-02-12T02:13:17.667Z,3.50
2023-02-12T02:15:49.174Z,3.30
2023-02-12T02:18:26.370Z,3.20
2023-02-12T02:21:27.105Z,3.20
2023-02-12T02:24:05.755Z,3.10
2023-02-12T02:26:50.529Z,3.30
2023-02-12T02:29:54.984Z,3.40
2023-02-12T02:32:25.614Z,3.30
2023-02-12T02:35:24.615Z,3.20
2023-02-12T02:38:28.721Z,3.30
2023-02-12T02:41:04.728Z,3.30
2023-02-12T02:43:47.092Z,3.20
2023-02-12T02:46:37.336Z,3.40
2023-02-12T02:49:08.372Z,3.50
2023-02-12T02:51:41.067Z,3.60
2023-02-12T02:54:23.128Z,3.60
2023-02-12T02:56:52.238Z,3.60
2023-02-12T02:59:25.422Z,3.70
2023-02-12T03:01:56.941Z,3.80
2023-02-12T03:04:59.165Z,3.80
2023-02-12T03:07:29.807Z,3.90
2023-02-12T03:10:01.921Z,3.90
2023-02-12T03:12:53.064Z,3.80
2023-02-12T03:15:47.306Z,3.90
2023-02-12T03:18:29.463Z,3.80
2023-02-12T03:21:05.898Z,3.80
2023-02-12T03:23:40.341Z,3.70
2023-02-12T03:26:11.885Z,3.50
2023-02-12T03:28:40.453Z,3.60
2023-02-12T03:31:33.826Z,3.50
2023-02-12T03:34:13.690Z,3.50
2023-02-12T03:37:03.552Z,3.50
2023-02-12T03:39:48.918Z,3.70
2023-02-12T03:42:57.895Z,3.70
2023-02-12T03:45:50.348Z,3.60
2023-02-12T03:48:22.791Z,3.80
2023-02-12T03:50:58.547Z,3.80
2023-02-12T03:53:27.502Z,3.80
2023-02-12T03:55:59.813Z,3.70
2023-02-12T03:58:29.367Z,3.60
2023-02-12T04:00:56.991Z,3.80
2023-02-12T04:03:24.410Z,3.80
2023-02-12T04:05:51.087Z,3.60
2023-02-12T04:08:18.013Z,3.50
2023-02-12T04:11:20.668Z,3.40
2023-02-12T04:13:59.482Z,3.50
2023-02-12T04:16:30.930Z,3.50
2023-02-12T04:18:57.980Z,3.50
2023-02-12T04:22:02.372Z,3.40
2023-02-12T04:24:57.500Z,3.50
2023-02-12T04:27:47.582Z,3.50
2023-02-12T04:30:22.604Z,3.40
2023-02-12T04:33:03.671Z,3.40
2023-02-12T04:35:40.508Z,3.40
2023-02-12T04:38:13.676Z,3.50
2023-02-12T04:40:42.083Z,3.40
2023-02-12T04:43:09.284Z,3.40
2023-02-12T04:45:37.421Z,3.50
2023-02-12T04:48:04.992Z,3.40
2023-02-12T04:50:43.419Z,3.40
2023-02-12T04:53:11.000Z,3.30
2023-02-12T04:55:37.885Z,3.40
2023-02-12T04:58:05.523Z,3.50
2023-02-12T05:00:32.392Z,3.50
2023-02-12T05:02:59.127Z,3.70
2023-02-12T05:05:26.229Z,3.60
2023-02-12T05:07:53.045Z,3.50
2023-02-12T05:10:19.905Z,3.70
2023-02-12T05:12:46.547Z,3.70
2023-02-12T05:15:13.236Z,3.60
2023-02-12T05:17:39.917Z,3.70
2023-02-12T05:20:07.159Z,3.60
2023-02-12T05:22:34.512Z,3.60
2023-02-12T05:25:01.132Z,3.50
2023-02-12T05:27:27.779Z,3.60
2023-02-12T05:29:54.369Z,3.50
2023-02-12T05:32:21.042Z,3.50
2023-02-12T05:34:47.735Z,3.50
2023-02-12T05:37:14.573Z,3.40
2023-02-12T05:39:41.333Z,3.50
2023-02-12T05:42:07.932Z,3.40
2023-02-12T05:44:34.654Z,3.50
2023-02-12T05:47:01.369Z,3.50
2023-02-12T05:49:28.140Z,3.40
2023-02-12T05:51:54.807Z,3.40
2023-02-12T05:54:21.445Z,3.40
2023-02-12T05:56:48.640Z,3.50
2023-02-12T05:59:21.627Z,3.60
2023-02-12T06:01:50.201Z,3.50
2023-02-12T06:04:20.029Z,3.50
2023-02-12T06:06:46.842Z,3.50
2023-02-12T06:09:14.296Z,3.50
2023-02-12T06:11:41.903Z,3.50
2023-02-12T06:14:12.680Z,3.50
2023-02-12T06:16:39.696Z,3.50
2023-02-12T06:19:07.067Z,3.50
2023-02-12T06:21:34.169Z,3.60
2023-02-12T06:24:00.905Z,3.50
2023-02-12T06:26:28.046Z,3.50
2023-02-12T06:28:55.007Z,3.50
2023-02-12T06:31:27.483Z,3.50
2023-02-12T06:33:55.789Z,3.60
2023-02-12T06:36:22.928Z,3.60
2023-02-12T06:38:50.477Z,3.60
2023-02-12T06:41:17.263Z,3.60
2023-02-12T06:43:43.996Z,3.70
2023-02-12T06:46:11.124Z,3.70
2023-02-12T06:48:38.552Z,3.60
2023-02-12T06:51:10.207Z,3.60
2023-02-12T06:53:36.920Z,3.50
2023-02-12T06:56:13.034Z,3.50
2023-02-12T06:58:47.255Z,3.50
2023-02-12T07:01:17.826Z,3.40
2023-02-12T07:03:48.662Z,3.50
2023-02-12T07:06:15.536Z,3.40
2023-02-12T07:08:42.221Z,3.40
2023-02-12T07:11:09.036Z,3.30
2023-02-12T07:13:36.150Z,3.40
2023-02-12T07:16:08.094Z,3.40
2023-02-12T07:18:36.288Z,3.20
2023-02-12T07:21:04.451Z,3.20
2023-02-12T07:23:31.194Z,3.20
2023-02-12T07:26:03.881Z,3.10
2023-02-12T07:28:34.020Z,2.90
2023-02-12T07:31:22.502Z,3.00
2023-02-12T07:33:49.647Z,3.00
2023-02-12T07:36:18.229Z,3.10
2023-02-12T07:38:45.424Z,3.30
2023-02-12T07:41:14.613Z,3.50
2023-02-12T07:43:46.374Z,3.30
2023-02-12T07:46:23.782Z,3.20
2023-02-12T07:48:52.234Z,3.30
2023-02-12T07:51:19.477Z,3.30
2023-02-12T07:53:46.709Z,3.40
2023-02-12T07:56:25.759Z,3.40
2023-02-12T07:58:53.592Z,3.40
2023-02-12T08:01:21.939Z,3.40
2023-02-12T08:03:50.071Z,3.50
2023-02-12T08:06:26.563Z,3.70
2023-02-12T08:08:56.148Z,3.70
2023-02-12T08:11:24.095Z,3.70
2023-02-12T08:13:51.280Z,3.70
2023-02-12T08:16:20.745Z,3.70
2023-02-12T08:18:49.581Z,3.70
2023-02-12T08:21:18.865Z,3.70
2023-02-12T08:23:46.422Z,3.90
2023-02-12T08:26:17.064Z,4.00
2023-02-12T08:28:49.432Z,4.10
2023-02-12T08:31:43.926Z,4.10
2023-02-12T08:34:22.569Z,4.10
2023-02-12T08:36:51.062Z,4.20
2023-02-12T08:39:18.778Z,4.30
2023-02-12T08:41:46.246Z,4.30
2023-02-12T08:44:13.461Z,4.30
2023-02-12T08:46:45.954Z,4.40
2023-02-12T08:49:15.310Z,4.50
2023-02-12T08:51:48.733Z,4.50
2023-02-12T08:54:19.008Z,4.50
2023-02-12T08:56:45.782Z,4.50
2023-02-12T08:59:14.060Z,4.80
2023-02-12T09:01:41.855Z,5.00
2023-02-12T09:04:18.464Z,4.90
2023-02-12T09:06:46.473Z,4.90
2023-02-12T09:09:13.874Z,4.90
2023-02-12T09:11:40.627Z,4.90
2023-02-12T09:14:10.642Z,4.90
2023-02-12T09:16:37.824Z,5.00
2023-02-12T09:19:04.684Z,5.00
2023-02-12T09:21:31.690Z,5.20
2023-02-12T09:23:58.612Z,5.50
2023-02-12T09:26:26.171Z,5.50
2023-02-12T09:28:53.594Z,5.40
2023-02-12T09:31:26.472Z,5.50
2023-02-12T09:33:55.517Z,5.80
2023-02-12T09:36:22.281Z,6.00
2023-02-12T09:38:49.578Z,5.90
2023-02-12T09:41:28.254Z,5.80
2023-02-12T09:44:19.192Z,5.90
2023-02-12T09:46:51.715Z,6.30
2023-02-12T09:49:51.843Z,6.50
2023-02-12T09:52:22.411Z,6.60
2023-02-12T09:54:49.931Z,6.50
2023-02-12T09:57:36.630Z,6.70
2023-02-12T10:00:12.361Z,6.50
2023-02-12T10:02:40.607Z,6.50
2023-02-12T10:05:20.585Z,6.50
2023-02-12T10:07:59.006Z,6.60
2023-02-12T10:10:28.480Z,6.60
2023-02-12T10:13:04.262Z,6.80
2023-02-12T10:15:45.616Z,6.90
2023-02-12T10:18:41.172Z,7.20
2023-02-12T10:21:19.693Z,7.50
2023-02-12T10:24:02.433Z,7.50
2023-02-12T10:26:31.696Z,7.30
2023-02-12T10:29:09.201Z,7.20
2023-02-12T10:31:40.341Z,7.20
2023-02-12T10:34:18.791Z,7.30
2023-02-12T10:36:52.693Z,7.40
2023-02-12T10:39:35.224Z,7.90
2023-02-12T10:42:16.593Z,7.80
2023-02-12T10:44:43.265Z,7.70
2023-02-12T10:47:20.263Z,7.80
2023-02-12T10:49:52.245Z,7.70
2023-02-12T10:52:46.888Z,7.90
2023-02-12T10:55:27.060Z,8.00
2023-02-12T10:57:54.539Z,8.10
2023-02-12T11:00:26.263Z,8.00
2023-02-12T11:03:02.929Z,8.00
2023-02-12T11:05:32.970Z,7.90
2023-02-12T11:08:00.617Z,8.00
2023-02-12T11:10:28.831Z,8.30
2023-02-12T11:12:55.963Z,8.40
2023-02-12T11:15:25.261Z,8.60
2023-02-12T11:18:07.688Z,8.80
2023-02-12T11:20:38.864Z,8.80
2023-02-12T11:23:22.896Z,8.90
2023-02-12T11:26:16.961Z,8.90
2023-02-12T11:28:54.376Z,8.80
2023-02-12T11:31:32.433Z,8.80
2023-02-12T11:34:14.125Z,9.20
2023-02-12T11:36:44.216Z,9.10
2023-02-12T11:39:24.718Z,9.00
2023-02-12T11:41:59.973Z,9.10
2023-02-12T11:44:32.228Z,9.10
2023-02-12T11:47:10.446Z,9.10
2023-02-12T11:49:48.488Z,9.30
2023-02-12T11:52:24.761Z,9.40
2023-02-12T11:54:54.855Z,9.80
2023-02-12T11:57:47.481Z,9.90
2023-02-12T12:00:27.145Z,9.80
2023-02-12T12:03:31.516Z,9.70
2023-02-12T12:06:06.999Z,9.70
2023-02-12T12:08:45.028Z,9.90
2023-02-12T12:11:40.555Z,10.00
2023-02-12T12:14:59.779Z,10.00
2023-02-12T12:17:59.922Z,10.10
2023-02-12T12:20:30.999Z,10.30
2023-02-12T12:23:14.297Z,10.40
2023-02-12T12:25:49.318Z,10.30
2023-02-12T12:28:34.466Z,10.60
2023-02-12T12:31:10.101Z,10.60
2023-02-12T12:33:50.357Z,10.70
2023-02-12T12:36:35.127Z,10.60
2023-02-12T12:39:34.644Z,10.60
2023-02-12T12:42:22.982Z,10.70
2023-02-12T12:45:17.490Z,10.90
2023-02-12T12:47:53.208Z,11.00
2023-02-12T12:51:04.649Z,10.80
2023-02-12T12:53:56.704Z,10.90
2023-02-12T12:56:41.894Z,10.90
2023-02-12T12:59:28.304Z,10.90
2023-02-12T13:02:03.919Z,11.00
2023-02-12T13:05:01.262Z,11.30
2023-02-12T13:07:46.421Z,11.20
2023-02-12T13:10:31.735Z,11.20
2023-02-12T13:13:20.657Z,11.20
2023-02-12T13:16:01.116Z,11.20
2023-02-12T13:19:05.257Z,11.20
2023-02-12T13:21:45.375Z,11.30
2023-02-12T13:24:20.058Z,11.30
2023-02-12T13:26:59.527Z,11.30
2023-02-12T13:29:40.208Z,11.40
2023-02-12T13:32:27.170Z,11.40
2023-02-12T13:34:55.472Z,11.40
2023-02-12T13:37:36.775Z,11.40
2023-02-12T13:40:13.900Z,11.40
2023-02-12T13:43:07.650Z,11.40
2023-02-12T13:45:34.246Z,11.40
2023-02-12T13:48:31.799Z,11.30
2023-02-12T13:51:11.667Z,11.20
2023-02-12T13:54:04.891Z,11.50
2023-02-12T13:56:43.970Z,11.50
2023-02-12T13:59:32.781Z,11.70
2023-02-12T14:02:05.320Z,11.50
2023-02-12T14:04:47.674Z,11.50
2023-02-12T14:07:15.972Z,11.40
2023-02-12T14:09:50.363Z,11.80
2023-02-12T14:12:26.337Z,11.70
2023-02-12T14:14:54.618Z,11.70
2023-02-12T14:17:30.826Z,11.60
2023-02-12T14:20:28.478Z,11.50
2023-02-12T14:23:02.156Z,11.70
2023-02-12T14:25:43.720Z,11.70
2023-02-12T14:28:43.387Z,11.70
2023-02-12T14:31:19.442Z,11.40
2023-02-12T14:33:48.496Z,11.60
2023-02-12T14:36:16.832Z,11.80
2023-02-12T14:38:47.679Z,11.80
2023-02-12T14:41:43.092Z,11.60
2023-02-12T14:44:20.680Z,11.50
2023-02-12T14:46:54.831Z,11.50
2023-02-12T14:49:27.552Z,11.60
2023-02-12T14:51:57.917Z,11.80
2023-02-12T14:54:30.908Z,11.60
2023-02-12T14:57:02.348Z,11.30
2023-02-12T14:59:33.551Z,11.60
2023-02-12T15:02:04.043Z,11.70
2023-02-12T15:04:36.696Z,11.70
2023-02-12T15:07:20.473Z,11.70
2023-02-12T15:09:57.862Z,11.60
2023-02-12T15:12:32.652Z,11.50
2023-02-12T15:15:15.290Z,11.30
2023-02-12T15:17:54.525Z,11.50
2023-02-12T15:20:24.951Z,11.40
2023-02-12T15:22:51.672Z,11.30
2023-02-12T15:25:33.196Z,11.30
2023-02-12T15:28:04.579Z,11.40
2023-02-12T15:30:36.621Z,11.00
2023-02-12T15:33:06.699Z,11.10
2023-02-12T15:35:37.604Z,11.00
2023-02-12T15:38:07.598Z,11.20
2023-02-12T15:40:35.107Z,11.00
2023-02-12T15:43:07.589Z,11.00
2023-02-12T15:45:36.329Z,11.00
2023-02-12T15:48:17.847Z,10.80
2023-02-12T15:50:58.860Z,10.80
2023-02-12T15:53:30.725Z,10.70
2023-02-12T15:55:59.808Z,10.40
2023-02-12T15:58:49.993Z,10.40
2023-02-12T16:01:25.744Z,10.40
2023-02-12T16:03:58.353Z,10.40
2023-02-12T16:06:27.202Z,10.50
2023-02-12T16:09:07.104Z,10.30
2023-02-12T16:11:35.255Z,10.20
2023-02-12T16:14:19.327Z,10.20
2023-02-12T16:16:49.302Z,10.20
2023-02-12T16:19:37.199Z,10.00
2023-02-12T16:22:08.992Z,9.90
2023-02-12T16:24:39.468Z,9.70
2023-02-12T16:27:15.184Z,9.60
2023-02-12T16:29:48.340Z,9.60
2023-02-12T16:32:30.609Z,9.60
2023-02-12T16:35:04.974Z,9.60
2023-02-12T16:37:37.393Z,9.40
2023-02-12T16:40:13.147Z,9.30
2023-02-12T16:42:48.972Z,9.20
2023-02-12T16:45:28.239Z,9.20
2023-02-12T16:48:05.429Z,9.00
2023-02-12T16:50:34.153Z,8.90
2023-02-12T16:53:07.329Z,9.00
2023-02-12T16:55:34.478Z,8.80
2023-02-12T16:58:01.443Z,8.80
2023-02-12T17:00:28.094Z,8.70
2023-02-12T17:02:55.937Z,8.60
2023-02-12T17:05:23.418Z,8.60
2023-02-12T17:07:50.812Z,8.60
2023-02-12T17:10:17.816Z,8.50
2023-02-12T17:12:46.569Z,8.40
2023-02-12T17:15:28.429Z,8.40
2023-02-12T17:17:55.190Z,8.20
2023-02-12T17:20:21.878Z,8.20
2023-02-12T17:22:52.339Z,8.20
2023-02-12T17:25:19.323Z,8.20
2023-02-12T17:27:46.383Z,8.10
2023-02-12T17:30:18.389Z,8.10
2023-02-12T17:32:45.096Z,7.90
2023-02-12T17:35:11.817Z,7.70
2023-02-12T17:37:38.485Z,7.60
2023-02-12T17:40:06.870Z,7.60
2023-02-12T17:42:35.205Z,7.50
2023-02-12T17:45:01.924Z,7.30
2023-02-12T17:47:29.808Z,7.30
2023-02-12T17:49:56.545Z,7.30
2023-02-12T17:52:23.282Z,7.10
2023-02-12T17:54:49.917Z,7.00
2023-02-12T17:57:16.898Z,6.80
2023-02-12T17:59:43.749Z,6.70
2023-02-12T18:02:12.040Z,6.60
2023-02-12T18:04:39.361Z,6.70
2023-02-12T18:07:06.242Z,6.70
2023-02-12T18:09:33.070Z,6.70
2023-02-12T18:12:00.020Z,6.80
2023-02-12T18:14:26.747Z,6.90
2023-02-12T18:16:53.480Z,6.90
2023-02-12T18:19:20.194Z,6.70
2023-02-12T18:21:47.605Z,6.50
2023-02-12T18:24:14.288Z,6.30
2023-02-12T18:26:41.036Z,6.10
2023-02-12T18:29:07.705Z,6.20
2023-02-12T18:31:35.160Z,6.10
2023-02-12T18:34:02.055Z,6.20
2023-02-12T18:36:28.797Z,6.40
2023-02-12T18:38:55.515Z,6.50
2023-02-12T18:41:25.908Z,6.40
2023-02-12T18:43:53.150Z,6.40
2023-02-12T18:46:23.082Z,6.40
2023-02-12T18:48:50.306Z,6.20
2023-02-12T18:51:22.496Z,6.10
2023-02-12T18:54:01.381Z,6.10
2023-02-12T18:56:33.509Z,6.00
2023-02-12T18:59:04.775Z,5.70
2023-02-12T19:01:32.924Z,5.60
2023-02-12T19:04:02.331Z,5.60
2023-02-12T19:06:30.626Z,5.60
2023-02-12T19:08:59.114Z,5.60
2023-02-12T19:11:27.719Z,5.60
2023-02-12T19:13:55.018Z,5.60
2023-02-12T19:16:23.741Z,5.70
2023-02-12T19:18:56.011Z,5.60
2023-02-12T19:21:26.145Z,5.70
2023-02-12T19:23:54.945Z,5.70
2023-02-12T19:26:22.597Z,5.70
2023-02-12T19:28:49.446Z,5.70
2023-02-12T19:31:22.253Z,5.70
2023-02-12T19:33:50.285Z,5.60
2023-02-12T19:36:19.142Z,5.70
2023-02-12T19:38:47.896Z,5.70
2023-02-12T19:41:17.372Z,5.60
2023-02-12T19:43:44.780Z,5.30
2023-02-12T19:46:19.570Z,5.20
2023-02-12T19:48:47.812Z,5.00
2023-02-12T19:51:20.550Z,4.90
2023-02-12T19:53:48.330Z,4.90
2023-02-12T19:56:16.098Z,4.90
2023-02-12T19:58:42.989Z,4.80
2023-02-12T20:01:15.146Z,4.80
2023-02-12T20:03:41.828Z,4.90
2023-02-12T20:06:14.216Z,4.90
2023-02-12T20:08:42.631Z,4.90
2023-02-12T20:11:13.871Z,4.90
2023-02-12T20:13:41.410Z,4.90
2023-02-12T20:16:11.524Z,4.90
2023-02-12T20:18:39.213Z,5.10
2023-02-12T20:21:33.270Z,5.00
2023-02-12T20:24:01.704Z,5.00
2023-02-12T20:26:32.866Z,5.10
2023-02-12T20:29:00.113Z,5.10
2023-02-12T20:31:30.851Z,5.10
2023-02-12T20:34:09.056Z,4.60
2023-02-12T20:36:38.162Z,4.80
2023-02-12T20:39:07.161Z,4.80
2023-02-12T20:41:36.960Z,4.50
2023-02-12T20:44:09.039Z,4.70
2023-02-12T20:46:37.833Z,4.60
2023-02-12T20:49:05.271Z,4.60
2023-02-12T20:51:32.360Z,4.60
2023-02-12T20:54:02.761Z,4.50
2023-02-12T20:56:34.514Z,4.50
2023-02-12T20:59:02.151Z,4.50
2023-02-12T21:01:37.561Z,4.50
2023-02-12T21:04:07.385Z,4.60
2023-02-12T21:06:34.537Z,4.70
2023-02-12T21:09:01.426Z,4.60
2023-02-12T21:11:29.538Z,4.40
2023-02-12T21:14:02.469Z,4.40
2023-02-12T21:16:41.136Z,4.40
2023-02-12T21:19:09.055Z,4.40
2023-02-12T21:21:39.556Z,4.20
2023-02-12T21:24:11.094Z,4.20
2023-02-12T21:26:37.762Z,4.30
2023-02-12T21:29:04.836Z,4.40
2023-02-12T21:31:37.535Z,4.40
2023-02-12T21:34:06.769Z,4.40
2023-02-12T21:36:41.477Z,4.40
2023-02-12T21:39:11.020Z,4.40
2023-02-12T21:41:40.211Z,4.40
2023-02-12T21:44:08.331Z,4.40
2023-02-12T21:46:35.960Z,4.30
2023-02-12T21:49:03.940Z,4.30
2023-02-12T21:51:37.240Z,4.30
2023-02-12T21:54:07.661Z,4.20
2023-02-12T21:56:36.859Z,4.20
2023-02-12T21:59:04.636Z,4.10
2023-02-12T22:01:34.557Z,4.20
2023-02-12T22:04:02.684Z,3.80
2023-02-12T22:06:29.645Z,3.80
2023-02-12T22:09:01.453Z,3.80
2023-02-12T22:11:28.131Z,3.90
2023-02-12T22:13:54.804Z,3.80
2023-02-12T22:16:24.241Z,3.60
2023-02-12T22:18:56.393Z,3.40
2023-02-12T22:21:24.929Z,3.30
2023-02-12T22:23:52.133Z,3.30
2023-02-12T22:26:21.866Z,3.30
2023-02-12T22:28:51.016Z,3.20
2023-02-12T22:31:20.131Z,3.30
2023-02-12T22:33:48.023Z,3.20
2023-02-12T22:36:15.048Z,3.10
2023-02-12T22:38:41.719Z,3.20
2023-02-12T22:41:09.585Z,3.00
2023-02-12T22:43:38.337Z,3.10
2023-02-12T22:46:06.207Z,3.20
2023-02-12T22:48:32.878Z,3.10
2023-02-12T22:50:59.990Z,3.00
2023-02-12T22:53:27.166Z,3.10
2023-02-12T22:55:53.888Z,3.20
2023-02-12T22:58:20.635Z,3.20
2023-02-12T23:00:47.248Z,3.00
2023-02-12T23:03:13.993Z,2.90
2023-02-12T23:05:40.697Z,3.10
2023-02-12T23:08:07.390Z,3.10
2023-02-12T23:10:34.102Z,3.20
2023-02-12T23:13:02.936Z,3.40
2023-02-12T23:15:30.465Z,3.40
2023-02-12T23:17:57.166Z,3.10
2023-02-12T23:20:23.917Z,3.00
2023-02-12T23:22:50.556Z,3.10
2023-02-12T23:25:17.294Z,3.00
2023-02-12T23:27:43.976Z,2.90
2023-02-12T23:30:11.202Z,2.90
2023-02-12T23:32:37.878Z,2.70
2023-02-12T23:35:04.843Z,2.60
2023-02-12T23:37:31.540Z,2.50
2023-02-12T23:39:58.270Z,2.50
2023-02-12T23:42:24.972Z,2.40
2023-02-12T23:44:51.641Z,2.30
2023-02-12T23:47:18.625Z,2.20
2023-02-12T23:49:45.260Z,2.40
2023-02-12T23:52:11.903Z,2.30
2023-02-12T23:54:41.679Z,2.50
2023-02-12T23:57:08.339Z,2.60
2023-02-12T23:59:35.110Z,2.50
